Time;durP1;ratioP1;P1;durP2;ratioP2;P2;SDS_P1;SDS_P2;PMS_P1;PMS_P2;Temp;Humidity;BMP_temperature;BMP_pressure;BME280_temperature;BME280_humidity;BME280_pressure;Samples;Min_cycle;Max_cycle;Signal;HPM_P1;HPM_P2
2023/11/17 00:01:34;;;;;;;6.87;5.00;;;;;;;5.98;100.00;152898.16;5029014;28;20478;-89
2023/11/17 00:04:00;;;;;;;5.53;5.03;;;;;;;5.95;100.00;152890.44;5027221;28;21071;-88
2023/11/17 00:06:27;;;;;;;6.27;4.63;;;;;;;5.90;100.00;152877.56;5048455;28;20449;-88
2023/11/17 00:08:55;;;;;;;4.50;4.03;;;;;;;5.87;100.00;152869.81;5029346;28;21012;-88
2023/11/17 00:11:21;;;;;;;4.70;3.67;;;;;;;5.91;100.00;152880.09;5029289;28;20458;-89
2023/11/17 00:13:49;;;;;;;4.73;3.60;;;;;;;5.92;100.00;152882.69;5047120;28;20450;-88
2023/11/17 00:16:17;;;;;;;4.80;3.70;;;;;;;5.88;100.00;152872.34;5030002;28;20889;-88
2023/11/17 00:18:43;;;;;;;5.50;3.80;;;;;;;5.85;100.00;152864.63;5038235;28;20459;-88
2023/11/17 00:21:10;;;;;;;3.73;2.97;;;;;;;5.77;100.00;152843.94;5046729;28;20499;-87
2023/11/17 00:23:38;;;;;;;3.33;3.03;;;;;;;5.73;100.00;152833.63;5028522;28;20447;-88
2023/11/17 00:26:06;;;;;;;5.47;3.47;;;;;;;5.75;100.00;152838.78;5047180;28;20447;-87
2023/11/17 00:28:39;;;;;;;4.43;3.30;;;;;;;5.78;100.00;152846.53;5049973;28;20447;-88
2023/11/17 00:31:06;;;;;;;4.03;3.00;;;;;;;5.79;100.00;152849.13;5048799;28;20548;-87
2023/11/17 00:33:33;;;;;;;5.63;2.87;;;;;;;5.80;100.00;152851.66;5017579;28;20999;-87
2023/11/17 00:36:00;;;;;;;3.77;2.80;;;;;;;5.77;100.00;152842.69;5051127;28;20450;-88
2023/11/17 00:38:28;;;;;;;3.80;2.97;;;;;;;5.73;100.00;152833.63;5052123;28;20459;-88
2023/11/17 00:40:54;;;;;;;4.00;2.80;;;;;;;5.74;100.00;152836.22;5046981;28;20502;-88
2023/11/17 00:43:25;;;;;;;3.60;3.00;;;;;;;5.74;100.00;152836.22;5032220;28;20500;-88
2023/11/17 00:45:52;;;;;;;3.30;2.30;;;;;;;5.72;100.00;152831.03;5044636;28;20837;-88
2023/11/17 00:48:19;;;;;;;3.37;2.50;;;;;;;5.74;100.00;152834.94;5023430;28;20455;-88
2023/11/17 00:50:46;;;;;;;3.10;2.40;;;;;;;5.72;100.00;152829.78;5050092;28;20466;-88
2023/11/17 00:53:15;;;;;;;3.37;2.53;;;;;;;5.72;100.00;152831.03;5041705;28;20500;-88
2023/11/17 00:55:42;;;;;;;2.30;2.00;;;;;;;5.72;100.00;152831.03;5028332;28;20479;-88
2023/11/17 00:58:09;;;;;;;2.80;1.93;;;;;;;5.70;100.00;152825.88;5029435;28;20458;-88
2023/11/17 01:00:37;;;;;;;2.13;1.37;;;;;;;5.66;100.00;152815.59;5051048;28;20470;-88
2023/11/17 01:03:04;;;;;;;2.43;1.70;;;;;;;5.67;100.00;152818.16;5052186;28;20435;-88
2023/11/17 01:05:31;;;;;;;2.97;1.90;;;;;;;5.64;100.00;152809.16;5015645;28;20462;-88
2023/11/17 01:07:58;;;;;;;2.17;1.67;;;;;;;5.66;100.00;152814.28;5016969;28;20843;-89
2023/11/17 01:10:24;;;;;;;2.37;1.80;;;;;;;5.66;100.00;152815.59;5032766;28;20435;-88
2023/11/17 01:12:52;;;;;;;2.40;1.23;;;;;;;5.63;100.00;152807.84;5035374;28;20486;-88
2023/11/17 01:15:19;;;;;;;2.23;1.77;;;;;;;5.59;100.00;152797.50;5047666;28;20457;-89
2023/11/17 01:17:47;;;;;;;2.13;1.70;;;;;;;5.54;100.00;152785.91;5050466;28;22024;-89
2023/11/17 01:20:14;;;;;;;2.50;1.57;;;;;;;5.50;100.00;152774.31;5048519;28;20490;-88
2023/11/17 01:22:41;;;;;;;2.30;1.20;;;;;;;5.49;100.00;152773.03;5047485;28;20485;-88
2023/11/17 01:25:08;;;;;;;1.83;1.33;;;;;;;5.46;100.00;152764.00;5031975;28;20450;-88
2023/11/17 01:27:34;;;;;;;1.93;1.27;;;;;;;5.47;100.00;152766.59;5033351;28;20522;-88
2023/11/17 01:30:01;;;;;;;2.50;1.50;;;;;;;5.46;100.00;152764.00;5047761;28;20466;-88
2023/11/17 01:32:31;;;;;;;3.20;1.57;;;;;;;5.45;100.00;152761.44;5043633;28;20462;-89
2023/11/17 01:34:59;;;;;;;1.63;1.20;;;;;;;5.44;100.00;152760.13;5043972;28;20506;-88
2023/11/17 01:37:26;;;;;;;3.73;1.70;;;;;;;5.43;100.00;152756.25;5056929;28;20860;-89
2023/11/17 01:39:52;;;;;;;2.27;1.53;;;;;;;5.45;100.00;152761.44;5057550;28;20482;-89
2023/11/17 01:42:19;;;;;;;2.17;1.70;;;;;;;5.45;100.00;152761.44;5031470;28;20890;-89
2023/11/17 01:44:45;;;;;;;2.27;1.70;;;;;;;5.41;100.00;152751.09;5033607;28;20459;-89
2023/11/17 01:47:12;;;;;;;2.60;1.60;;;;;;;5.40;100.00;152748.56;5012872;28;20459;-88
2023/11/17 01:49:38;;;;;;;3.53;1.90;;;;;;;5.44;100.00;152760.13;5030692;28;20449;-89
2023/11/17 01:52:07;;;;;;;2.90;2.07;;;;;;;5.47;100.00;152767.88;5048186;28;20921;-89
2023/11/17 01:54:35;;;;;;;2.37;2.10;;;;;;;5.43;100.00;152756.25;5031098;28;20486;-89
2023/11/17 01:57:02;;;;;;;3.13;2.50;;;;;;;5.41;100.00;152751.09;5047760;28;20486;-90
2023/11/17 01:59:29;;;;;;;2.10;1.73;;;;;;;5.41;100.00;152751.09;5009900;28;20861;-89
2023/11/17 02:01:56;;;;;;;2.30;1.90;;;;;;;5.38;100.00;152743.34;5040444;28;20479;-89
2023/11/17 02:04:23;;;;;;;4.27;1.80;;;;;;;5.33;100.00;152731.78;5013285;28;20465;-90
2023/11/17 02:06:57;;;;;;;2.13;1.50;;;;;;;5.33;100.00;152731.78;5051608;28;20451;-89
2023/11/17 02:09:34;;;;;;;2.13;1.60;;;;;;;5.31;100.00;152726.63;5012904;28;20451;-89
2023/11/17 02:12:10;;;;;;;2.83;2.20;;;;;;;5.36;100.00;152738.22;5046871;28;20537;-89
2023/11/17 02:14:39;;;;;;;4.47;3.27;;;;;;;5.38;100.00;152744.66;5030675;28;20446;-90
2023/11/17 02:17:08;;;;;;;2.27;1.90;;;;;;;5.37;100.00;152742.09;5030878;28;20447;-90
2023/11/17 02:19:36;;;;;;;3.00;2.60;;;;;;;5.36;100.00;152739.50;5033791;28;20981;-90
2023/11/17 02:22:07;;;;;;;5.60;3.20;;;;;;;5.38;100.00;152743.34;5042414;28;20545;-90
2023/11/17 02:24:45;;;;;;;3.87;2.70;;;;;;;5.37;100.00;152742.09;5030882;28;20964;-90
2023/11/17 02:27:25;;;;;;;4.27;2.40;;;;;;;5.38;100.00;152743.34;5028744;28;20787;-90
2023/11/17 02:29:56;;;;;;;5.53;2.77;;;;;;;5.39;100.00;152745.94;5012511;28;20450;-90
2023/11/17 02:32:24;;;;;;;2.93;2.20;;;;;;;5.36;100.00;152738.22;5010327;28;20531;-90
2023/11/17 02:34:53;;;;;;;6.13;3.63;;;;;;;5.40;100.00;152748.56;5032114;28;20509;-90
2023/11/17 02:37:24;;;;;;;3.30;2.17;;;;;;;5.39;100.00;152747.25;5031305;28;20478;-90
2023/11/17 02:39:50;;;;;;;3.60;2.90;;;;;;;5.42;100.00;152753.69;5047374;28;20450;-90
2023/11/17 02:42:24;;;;;;;3.73;2.73;;;;;;;5.43;100.00;152756.25;5030259;28;20478;-91
2023/11/17 02:44:51;;;;;;;4.33;3.10;;;;;;;5.44;100.00;152758.84;5013932;28;20453;-90
2023/11/17 02:47:27;;;;;;;4.37;3.50;;;;;;;5.45;100.00;152761.44;5034902;28;20461;-90
2023/11/17 02:50:00;;;;;;;5.20;3.80;;;;;;;5.43;100.00;152756.25;5029288;28;20666;-91
2023/11/17 02:52:32;;;;;;;3.77;3.00;;;;;;;5.42;100.00;152755.00;5015147;28;20859;-90
2023/11/17 02:55:01;;;;;;;4.87;3.57;;;;;;;5.40;100.00;152749.81;5024848;28;20823;-89
2023/11/17 02:57:29;;;;;;;4.20;3.03;;;;;;;5.43;100.00;152756.25;5047807;28;20498;-91
2023/11/17 02:59:56;;;;;;;5.43;3.33;;;;;;;5.40;100.00;152749.81;5029504;28;20502;-91
2023/11/17 03:02:25;;;;;;;4.10;3.40;;;;;;;5.38;100.00;152744.66;5030146;28;20466;-91
2023/11/17 03:04:54;;;;;;;4.57;3.70;;;;;;;5.38;100.00;152743.34;5045179;28;20444;-90
2023/11/17 03:07:20;;;;;;;5.80;3.63;;;;;;;5.39;100.00;152747.25;5020183;28;20612;-90
2023/11/17 03:09:51;;;;;;;3.97;2.80;;;;;;;5.38;100.00;152744.66;5047245;28;20459;-91
2023/11/17 03:12:19;;;;;;;5.93;3.77;;;;;;;5.42;100.00;152753.69;5048635;28;20791;-91
2023/11/17 03:14:45;;;;;;;4.90;3.50;;;;;;;5.45;100.00;152761.44;5037060;28;20488;-91
2023/11/17 03:17:12;;;;;;;4.53;3.63;;;;;;;5.48;100.00;152769.19;5029411;28;20439;-91
2023/11/17 03:19:40;;;;;;;5.00;3.10;;;;;;;5.46;100.00;152764.00;5045099;28;20502;-89
2023/11/17 03:22:06;;;;;;;3.97;3.07;;;;;;;5.43;100.00;152756.25;5027587;28;20510;-91
2023/11/17 03:24:34;;;;;;;3.97;3.00;;;;;;;5.43;100.00;152757.53;5051401;28;20861;-90
2023/11/17 03:27:00;;;;;;;3.70;3.07;;;;;;;5.44;100.00;152760.13;5046925;28;20929;-89
2023/11/17 03:29:28;;;;;;;3.50;2.47;;;;;;;5.44;100.00;152758.84;5029657;28;21144;-90
2023/11/17 03:31:57;;;;;;;4.13;2.80;;;;;;;5.43;100.00;152756.25;5047901;28;20451;-90
2023/11/17 03:34:28;;;;;;;4.57;3.00;;;;;;;5.42;100.00;152753.69;5048208;28;20455;-90
2023/11/17 03:36:57;;;;;;;4.40;3.13;;;;;;;5.43;100.00;152757.53;5029844;28;20901;-90
2023/11/17 03:39:24;;;;;;;3.20;2.30;;;;;;;5.45;100.00;152761.44;5049771;28;20466;-89
2023/11/17 03:41:51;;;;;;;3.27;2.50;;;;;;;5.42;100.00;152753.69;5048595;28;20841;-90
2023/11/17 03:44:17;;;;;;;3.30;2.27;;;;;;;5.41;100.00;152751.09;5048297;28;20453;-90
2023/11/17 03:46:45;;;;;;;2.70;2.00;;;;;;;5.42;100.00;152753.69;5046690;28;20454;-90
2023/11/17 03:49:12;;;;;;;3.03;2.13;;;;;;;5.41;100.00;152752.41;5029541;28;20977;-91
2023/11/17 03:51:39;;;;;;;3.27;2.30;;;;;;;5.38;100.00;152743.34;5048811;28;20435;-91
2023/11/17 03:54:09;;;;;;;2.53;1.87;;;;;;;5.36;100.00;152739.50;5047294;28;20469;-89
2023/11/17 03:56:35;;;;;;;2.00;1.60;;;;;;;5.34;100.00;152734.38;5032429;28;20810;-90
2023/11/17 03:59:03;;;;;;;3.03;1.97;;;;;;;5.33;100.00;152731.78;5047933;28;20823;-92
2023/11/17 04:01:30;;;;;;;3.70;1.97;;;;;;;5.33;100.00;152730.47;5036207;28;20462;-90
2023/11/17 04:03:57;;;;;;;2.70;1.97;;;;;;;5.34;100.00;152733.06;5033394;28;20461;-90
2023/11/17 04:06:23;;;;;;;2.77;1.70;;;;;;;5.35;100.00;152736.91;5048552;28;20461;-91
2023/11/17 04:08:50;;;;;;;2.47;1.50;;;;;;;5.35;100.00;152735.63;5052186;28;20450;-90
2023/11/17 04:11:18;;;;;;;2.57;1.60;;;;;;;5.34;100.00;152733.06;5031326;28;20443;-89
2023/11/17 04:13:45;;;;;;;2.80;2.00;;;;;;;5.33;100.00;152730.47;5051712;28;20441;-89
2023/11/17 04:16:12;;;;;;;2.00;1.67;;;;;;;5.32;100.00;152729.16;5042072;28;20442;-91
2023/11/17 04:18:40;;;;;;;3.20;1.90;;;;;;;5.32;100.00;152727.91;5032581;28;20458;-91
2023/11/17 04:21:06;;;;;;;3.43;1.93;;;;;;;5.32;100.00;152727.91;5031617;28;20496;-90
2023/11/17 04:23:33;;;;;;;2.43;2.00;;;;;;;5.30;100.00;152722.72;5032665;28;20999;-91
2023/11/17 04:26:00;;;;;;;2.40;1.60;;;;;;;5.28;100.00;152717.59;5026494;28;20447;-91
2023/11/17 04:28:28;;;;;;;3.07;2.30;;;;;;;5.30;100.00;152724.03;5048550;28;20549;-91
2023/11/17 04:30:55;;;;;;;3.47;2.27;;;;;;;5.28;100.00;152718.88;5048373;28;20956;-90
2023/11/17 04:33:21;;;;;;;2.50;2.20;;;;;;;5.31;100.00;152725.31;5052725;28;20458;-90
2023/11/17 04:35:49;;;;;;;3.60;2.60;;;;;;;5.29;100.00;152720.19;5038516;28;20457;-89
2023/11/17 04:38:16;;;;;;;3.40;2.60;;;;;;;5.29;100.00;152720.19;5039998;28;20463;-90
2023/11/17 04:40:42;;;;;;;3.07;2.13;;;;;;;5.27;100.00;152716.28;5037184;28;20446;-90
2023/11/17 04:43:10;;;;;;;4.23;2.70;;;;;;;5.30;100.00;152722.72;5055557;28;20533;-90
2023/11/17 04:45:42;;;;;;;5.10;2.30;;;;;;;5.27;100.00;152715.03;5064413;28;20513;-90
2023/11/17 04:48:11;;;;;;;3.03;2.47;;;;;;;5.26;100.00;152712.44;5058257;28;21016;-90
2023/11/17 04:50:38;;;;;;;2.73;2.00;;;;;;;5.27;100.00;152716.28;5052357;28;20481;-91
2023/11/17 04:53:04;;;;;;;3.63;2.50;;;;;;;5.28;100.00;152717.59;5034286;28;20485;-91
2023/11/17 04:55:31;;;;;;;3.90;2.73;;;;;;;5.24;100.00;152707.28;5050551;28;20446;-91
2023/11/17 04:57:57;;;;;;;3.10;2.73;;;;;;;5.25;100.00;152711.13;5033816;28;20439;-91
2023/11/17 05:00:26;;;;;;;4.47;2.20;;;;;;;5.25;100.00;152709.84;5031862;28;20444;-91
2023/11/17 05:02:54;;;;;;;2.20;2.00;;;;;;;5.22;100.00;152703.41;5033801;28;20462;-91
2023/11/17 05:05:20;;;;;;;3.17;2.43;;;;;;;5.23;100.00;152706.00;5044490;28;20451;-91
2023/11/17 05:07:47;;;;;;;3.37;2.40;;;;;;;5.25;100.00;152709.84;5032514;28;20965;-92
2023/11/17 05:10:18;;;;;;;4.53;2.37;;;;;;;5.23;100.00;152704.69;5039179;28;20463;-91
2023/11/17 05:12:46;;;;;;;3.70;2.23;;;;;;;5.22;100.00;152702.09;5042059;28;20428;-91
2023/11/17 05:15:13;;;;;;;3.23;2.20;;;;;;;5.21;100.00;152699.56;5058733;28;20455;-91
2023/11/17 05:17:44;;;;;;;2.87;2.20;;;;;;;5.18;100.00;152691.81;5032668;28;20439;-91
2023/11/17 05:20:15;;;;;;;2.30;2.00;;;;;;;5.17;100.00;152690.50;5045712;28;20461;-91
2023/11/17 05:22:45;;;;;;;2.90;2.13;;;;;;;5.19;100.00;152694.41;5047607;28;20525;-91
2023/11/17 05:25:14;;;;;;;3.73;2.43;;;;;;;5.21;100.00;152699.56;5050396;28;20571;-91
2023/11/17 05:27:41;;;;;;;3.23;2.47;;;;;;;5.18;100.00;152691.81;5031568;28;20454;-91
2023/11/17 05:30:09;;;;;;;2.73;2.23;;;;;;;5.18;100.00;152691.81;5043058;28;20447;-91
2023/11/17 05:32:36;;;;;;;4.20;2.53;;;;;;;5.20;100.00;152696.94;5032737;28;20438;-91
2023/11/17 05:35:05;;;;;;;2.40;2.10;;;;;;;5.19;100.00;152695.66;5050109;28;20485;-91
2023/11/17 05:37:33;;;;;;;2.80;2.40;;;;;;;5.18;100.00;152691.81;5031659;28;20451;-90
2023/11/17 05:40:00;;;;;;;3.63;2.50;;;;;;;5.17;100.00;152690.50;5034948;28;20741;-90
2023/11/17 05:42:28;;;;;;;2.67;2.00;;;;;;;5.16;100.00;152686.66;5055702;28;20490;-91
2023/11/17 05:44:55;;;;;;;3.73;2.40;;;;;;;5.16;100.00;152687.97;5050423;28;20573;-90
2023/11/17 05:47:22;;;;;;;3.30;2.43;;;;;;;5.18;100.00;152691.81;5032192;28;21003;-91
2023/11/17 05:49:48;;;;;;;5.23;2.67;;;;;;;5.18;100.00;152691.81;5031512;28;20873;-91
2023/11/17 05:52:16;;;;;;;3.10;2.17;;;;;;;5.17;100.00;152689.22;5047622;28;20477;-91
2023/11/17 05:54:45;;;;;;;3.47;2.43;;;;;;;5.15;100.00;152684.06;5031746;28;20442;-90
2023/11/17 05:57:12;;;;;;;3.60;2.40;;;;;;;5.16;100.00;152686.66;5048532;28;20520;-91
2023/11/17 05:59:39;;;;;;;3.07;2.37;;;;;;;5.14;100.00;152682.78;5034110;28;20443;-91
2023/11/17 06:02:06;;;;;;;5.70;2.30;;;;;;;5.14;100.00;152681.47;5050001;28;20464;-92
2023/11/17 06:04:32;;;;;;;2.80;2.17;;;;;;;5.13;100.00;152680.22;5032972;28;20458;-92
2023/11/17 06:06:59;;;;;;;2.87;2.13;;;;;;;5.16;100.00;152687.97;5020206;28;20464;-91
2023/11/17 06:09:25;;;;;;;3.10;2.40;;;;;;;5.17;100.00;152690.50;5023350;28;20467;-92
2023/11/17 06:11:55;;;;;;;2.77;2.20;;;;;;;5.15;100.00;152684.06;5016471;28;20534;-91
2023/11/17 06:14:21;;;;;;;3.70;2.50;;;;;;;5.14;100.00;152682.78;5022256;28;20462;-91
2023/11/17 06:16:48;;;;;;;3.20;2.57;;;;;;;5.15;100.00;152685.38;5041183;28;20884;-91
2023/11/17 06:19:17;;;;;;;3.80;2.83;;;;;;;5.13;100.00;152678.94;5039219;28;20507;-92
2023/11/17 06:21:43;;;;;;;5.50;3.03;;;;;;;5.11;100.00;152673.78;5022561;28;20475;-92
2023/11/17 06:24:10;;;;;;;3.63;2.87;;;;;;;5.14;100.00;152682.78;5037071;28;20458;-91
2023/11/17 06:26:37;;;;;;;3.93;2.47;;;;;;;5.13;100.00;152680.22;5041266;28;20450;-92
2023/11/17 06:29:05;;;;;;;3.73;2.80;;;;;;;5.15;100.00;152684.06;5021528;28;20442;-92
2023/11/17 06:31:32;;;;;;;3.97;2.60;;;;;;;5.14;100.00;152681.47;5044554;28;20506;-92
2023/11/17 06:33:59;;;;;;;4.20;3.40;;;;;;;5.14;100.00;152681.47;5023010;28;20498;-92
2023/11/17 06:36:25;;;;;;;4.43;2.90;;;;;;;5.16;100.00;152686.66;5028550;28;21023;-92
2023/11/17 06:38:52;;;;;;;3.90;2.97;;;;;;;5.15;100.00;152684.06;5048934;28;20458;-92
2023/11/17 06:41:18;;;;;;;3.47;2.50;;;;;;;5.12;100.00;152676.31;5048137;28;20803;-91
2023/11/17 06:43:45;;;;;;;2.93;2.63;;;;;;;5.12;100.00;152676.31;5029157;28;20912;-92
2023/11/17 06:46:13;;;;;;;3.43;2.70;;;;;;;5.11;100.00;152675.03;5024474;28;20458;-92
2023/11/17 06:48:40;;;;;;;3.80;3.00;;;;;;;5.11;100.00;152673.78;5030182;28;20477;-91
2023/11/17 06:51:07;;;;;;;5.03;3.23;;;;;;;5.12;100.00;152676.31;5029710;28;20448;-92
2023/11/17 06:53:33;;;;;;;4.13;3.23;;;;;;;5.11;100.00;152673.78;5037212;28;20448;-92
2023/11/17 06:56:00;;;;;;;3.50;2.93;;;;;;;5.12;100.00;152677.63;5040327;28;20451;-92
2023/11/17 06:58:27;;;;;;;4.63;3.13;;;;;;;5.13;100.00;152678.94;5022100;28;20455;-92
2023/11/17 07:00:53;;;;;;;3.43;2.70;;;;;;;5.12;100.00;152676.31;5038719;28;20464;-92
2023/11/17 07:03:22;;;;;;;5.60;3.40;;;;;;;5.13;100.00;152678.94;5018215;28;20476;-92
2023/11/17 07:05:49;;;;;;;4.67;3.57;;;;;;;5.14;100.00;152681.47;5041605;28;21013;-93
2023/11/17 07:08:17;;;;;;;6.53;3.37;;;;;;;5.12;100.00;152676.31;5037151;28;20925;-93
2023/11/17 07:10:44;;;;;;;4.17;3.33;;;;;;;5.12;100.00;152677.63;5039519;28;20447;-93
2023/11/17 07:13:10;;;;;;;4.03;2.80;;;;;;;5.12;100.00;152676.31;5038355;28;21226;-93
2023/11/17 07:15:39;;;;;;;3.83;2.97;;;;;;;5.09;100.00;152668.59;5039174;28;20463;-92
2023/11/17 07:18:06;;;;;;;4.13;2.60;;;;;;;5.09;100.00;152668.59;5022942;28;20454;-92
2023/11/17 07:20:34;;;;;;;3.53;2.60;;;;;;;5.11;100.00;152675.03;5021108;28;20524;-92
2023/11/17 07:23:01;;;;;;;3.80;2.70;;;;;;;5.13;100.00;152680.22;5036196;28;20471;-91
2023/11/17 07:25:28;;;;;;;4.23;2.77;;;;;;;5.12;100.00;152676.31;5038339;28;20446;-92
2023/11/17 07:27:55;;;;;;;3.60;2.53;;;;;;;5.15;100.00;152684.06;5027609;28;20717;-92
2023/11/17 07:30:23;;;;;;;3.17;2.63;;;;;;;5.14;100.00;152682.78;5038249;28;20447;-92
2023/11/17 07:32:50;;;;;;;4.13;3.00;;;;;;;5.16;100.00;152686.66;5038913;28;20459;-92
2023/11/17 07:35:16;;;;;;;3.60;2.40;;;;;;;5.15;100.00;152684.06;5042819;28;21000;-92
2023/11/17 07:37:45;;;;;;;3.23;2.93;;;;;;;5.16;100.00;152687.97;5008608;28;20462;-91
2023/11/17 07:40:13;;;;;;;4.87;2.77;;;;;;;5.19;100.00;152694.41;5040826;28;20490;-92
2023/11/17 07:42:40;;;;;;;5.07;2.40;;;;;;;5.19;100.00;152694.41;5026035;28;20466;-92
2023/11/17 07:45:10;;;;;;;3.63;2.30;;;;;;;5.16;100.00;152686.66;5008094;28;20557;-92
2023/11/17 07:47:38;;;;;;;4.93;2.70;;;;;;;5.15;100.00;152685.38;5040465;28;20453;-92
2023/11/17 07:50:07;;;;;;;5.00;3.20;;;;;;;5.16;100.00;152686.66;5042916;28;20451;-92
2023/11/17 07:52:34;;;;;;;4.23;3.10;;;;;;;5.16;100.00;152686.66;5028482;28;20513;-92
2023/11/17 07:55:02;;;;;;;4.43;3.57;;;;;;;5.17;100.00;152690.50;5041478;28;20473;-92
2023/11/17 07:57:30;;;;;;;4.67;3.43;;;;;;;5.18;100.00;152691.81;5024333;28;20446;-92
2023/11/17 07:59:56;;;;;;;3.80;3.10;;;;;;;5.22;100.00;152702.09;5024012;28;20466;-92
2023/11/17 08:02:23;;;;;;;3.90;3.07;;;;;;;5.27;100.00;152716.28;5051590;28;20470;-91
2023/11/17 08:04:59;;;;;;;4.87;3.00;;;;;;;5.31;100.00;152725.31;5050375;28;20458;-90
2023/11/17 08:07:25;;;;;;;3.57;2.83;;;;;;;5.34;100.00;152733.06;5053987;28;20462;-91
2023/11/17 08:09:52;;;;;;;4.20;2.90;;;;;;;5.36;100.00;152738.22;5044493;28;20459;-91
2023/11/17 08:12:20;;;;;;;3.43;2.37;;;;;;;5.37;100.00;152742.09;5040342;28;20487;-91
2023/11/17 08:14:47;;;;;;;3.47;2.70;;;;;;;5.37;100.00;152740.81;5045570;28;20459;-91
2023/11/17 08:17:14;;;;;;;3.10;2.50;;;;;;;5.38;100.00;152743.34;5011307;28;20457;-91
2023/11/17 08:19:40;;;;;;;3.77;2.73;;;;;;;5.39;100.00;152745.94;5042005;28;20467;-91
2023/11/17 08:22:08;;;;;;;2.73;2.47;;;;;;;5.41;100.00;152751.09;5022667;28;20841;-91
2023/11/17 08:24:34;;;;;;;4.73;3.17;;;;;;;5.43;100.00;152756.25;5041313;28;20475;-91
2023/11/17 08:27:01;;;;;;;3.60;2.50;;;;;;;5.46;100.00;152764.00;5040261;28;20532;-91
2023/11/17 08:29:29;;;;;;;4.77;3.20;;;;;;;5.49;100.00;152771.72;5038846;28;20458;-91
2023/11/17 08:31:56;;;;;;;4.50;3.03;;;;;;;5.51;100.00;152778.19;5042301;28;20454;-91
2023/11/17 08:34:23;;;;;;;4.30;3.80;;;;;;;5.55;100.00;152787.22;5027593;28;20458;-91
2023/11/17 08:36:50;;;;;;;3.80;2.97;;;;;;;5.57;100.00;152792.38;5045540;28;20443;-90
2023/11/17 08:39:25;;;;;;;4.40;2.93;;;;;;;5.61;100.00;152801.41;5043728;28;20569;-90
2023/11/17 08:41:52;;;;;;;5.20;4.03;;;;;;;5.63;100.00;152806.56;5042192;28;20446;-91
2023/11/17 08:44:22;;;;;;;5.80;3.63;;;;;;;5.66;100.00;152815.59;5017842;28;20874;-90
2023/11/17 08:46:51;;;;;;;4.30;3.67;;;;;;;5.68;100.00;152820.75;5033360;28;20459;-91
2023/11/17 08:49:17;;;;;;;4.93;3.70;;;;;;;5.69;100.00;152823.34;5049708;28;20465;-91
2023/11/17 08:51:46;;;;;;;5.10;3.83;;;;;;;5.70;100.00;152824.59;5044863;28;20451;-90
2023/11/17 08:54:13;;;;;;;4.37;3.40;;;;;;;5.70;100.00;152825.88;5040927;28;20942;-90
2023/11/17 08:56:41;;;;;;;5.17;4.00;;;;;;;5.73;100.00;152833.63;5045137;28;20454;-91
2023/11/17 08:59:10;;;;;;;4.53;3.57;;;;;;;5.73;100.00;152832.34;5028242;28;20458;-90
2023/11/17 09:01:42;;;;;;;7.50;3.60;;;;;;;5.73;100.00;152832.34;5024694;28;20467;-90
2023/11/17 09:04:10;;;;;;;6.70;3.70;;;;;;;5.75;100.00;152838.78;5039107;28;20482;-90
2023/11/17 09:06:36;;;;;;;4.77;3.30;;;;;;;5.76;100.00;152841.38;5041308;28;20458;-90
2023/11/17 09:09:05;;;;;;;5.20;3.37;;;;;;;5.78;100.00;152845.22;5040909;28;20462;-90
2023/11/17 09:11:37;;;;;;;5.67;4.20;;;;;;;5.81;100.00;152854.28;5020393;28;20440;-90
2023/11/17 09:14:06;;;;;;;4.43;3.57;;;;;;;5.81;100.00;152854.28;5037103;28;20525;-90
2023/11/17 09:16:34;;;;;;;4.93;3.50;;;;;;;5.82;100.00;152855.56;5039244;28;20471;-90
2023/11/17 09:19:01;;;;;;;3.57;2.90;;;;;;;5.82;100.00;152856.88;5046357;28;20462;-90
2023/11/17 09:21:29;;;;;;;4.77;2.80;;;;;;;5.83;100.00;152859.41;5046468;28;20565;-91
2023/11/17 09:23:58;;;;;;;3.10;2.53;;;;;;;5.85;100.00;152864.63;5047319;28;20509;-90
2023/11/17 09:26:27;;;;;;;3.97;3.33;;;;;;;5.86;100.00;152867.22;5031052;28;20486;-90
2023/11/17 09:28:53;;;;;;;4.10;2.70;;;;;;;5.90;100.00;152877.56;5046925;28;20462;-90
2023/11/17 09:31:20;;;;;;;3.43;2.70;;;;;;;5.94;100.00;152887.84;5044706;28;20451;-91
2023/11/17 09:33:52;;;;;;;3.90;3.20;;;;;;;5.97;100.00;152895.59;5029311;28;21050;-91
2023/11/17 09:36:19;;;;;;;4.10;2.73;;;;;;;6.01;100.00;152905.88;5024084;28;21030;-89
2023/11/17 09:38:50;;;;;;;2.80;2.20;;;;;;;6.05;100.00;152916.25;5022470;28;20467;-89
2023/11/17 09:41:17;;;;;;;3.23;2.57;;;;;;;6.09;100.00;152925.22;5045586;28;20458;-89
2023/11/17 09:43:44;;;;;;;3.80;2.47;;;;;;;6.11;100.00;152930.44;5042488;28;20494;-90
2023/11/17 09:46:11;;;;;;;3.10;2.20;;;;;;;6.14;100.00;152939.44;5027900;28;20549;-90
2023/11/17 09:48:39;;;;;;;2.73;2.43;;;;;;;6.19;100.00;152951.06;5041785;28;20482;-90
2023/11/17 09:51:30;;;;;;;3.23;2.73;;;;;;;6.25;100.00;152966.53;5023660;28;20459;-90
2023/11/17 09:54:02;;;;;;;3.67;2.43;;;;;;;6.31;100.00;152982.03;5023139;28;20473;-89
2023/11/17 09:56:29;;;;;;;3.60;2.90;;;;;;;6.33;100.00;152985.91;5020820;28;20822;-89
2023/11/17 09:59:11;;;;;;;3.33;2.60;;;;;;;6.35;100.00;152991.06;5041065;28;20472;-89
2023/11/17 10:01:38;;;;;;;6.47;2.50;;;;;;;6.37;100.00;152996.22;5023997;28;20535;-88
2023/11/17 10:04:06;;;;;;;3.00;2.10;;;;;;;6.37;100.00;152996.22;5041881;28;21291;-89
2023/11/17 10:06:33;;;;;;;3.80;2.10;;;;;;;6.37;100.00;152997.53;5026591;28;20462;-88
2023/11/17 10:09:02;;;;;;;4.43;2.30;;;;;;;6.35;100.00;152992.38;5042212;28;20459;-88
2023/11/17 10:11:30;;;;;;;3.97;2.27;;;;;;;6.32;100.00;152984.63;5042502;28;20443;-88
2023/11/17 10:13:57;;;;;;;2.80;2.47;;;;;;;6.33;100.00;152985.91;5038707;28;20482;-89
2023/11/17 10:16:24;;;;;;;2.53;1.83;;;;;;;6.30;100.00;152979.41;5039840;28;20471;-87
2023/11/17 10:18:51;;;;;;;2.90;2.20;;;;;;;6.31;100.00;152980.72;5021003;28;20539;-88
2023/11/17 10:21:19;;;;;;;2.00;1.77;;;;;;;6.33;100.00;152985.91;5037621;28;20501;-88
2023/11/17 10:23:50;;;;;;;1.97;1.60;;;;;;;6.30;100.00;152978.16;5022574;28;21054;-88
2023/11/17 10:26:20;;;;;;;3.90;1.90;;;;;;;6.32;100.00;152983.31;5040011;28;20446;-88
2023/11/17 10:28:47;;;;;;;2.90;2.27;;;;;;;6.33;100.00;152985.91;5041038;28;20458;-88
2023/11/17 10:31:14;;;;;;;2.50;1.53;;;;;;;6.34;100.00;152988.47;5044615;28;20549;-88
2023/11/17 10:33:42;;;;;;;2.90;1.67;;;;;;;6.34;100.00;152988.47;5026693;28;20451;-89
2023/11/17 10:36:11;;;;;;;2.23;1.50;;;;;;;6.37;100.00;152996.22;5032967;28;20451;-89
2023/11/17 10:38:39;;;;;;;2.20;1.60;;;;;;;6.36;100.00;152993.63;5041415;28;20922;-88
2023/11/17 10:41:14;;;;;;;2.47;2.00;;;;;;;6.39;100.00;153002.66;5045527;28;20508;-88
2023/11/17 10:43:50;;;;;;;2.37;1.80;;;;;;;6.42;100.00;153009.13;5010832;28;20611;-88
2023/11/17 10:46:20;;;;;;;2.30;1.70;;;;;;;6.43;100.00;153011.72;5043807;28;20466;-87
2023/11/17 10:48:52;;;;;;;2.47;1.60;;;;;;;6.40;100.00;153005.28;5044745;28;20508;-88
2023/11/17 10:54:59;;;;;;;2.13;1.80;;;;;;;6.44;100.00;153015.56;5022650;28;20520;-88
2023/11/17 10:57:26;;;;;;;2.07;1.73;;;;;;;6.48;100.00;153024.63;5020821;28;20457;-87
2023/11/17 10:59:55;;;;;;;2.60;1.60;;;;;;;6.48;100.00;153024.63;5037735;28;20479;-88
2023/11/17 11:02:22;;;;;;;4.20;2.13;;;;;;;6.51;100.00;153033.63;5038681;28;20447;-87
2023/11/17 11:04:49;;;;;;;1.90;1.40;;;;;;;6.55;100.00;153043.97;5039829;28;21069;-88
2023/11/17 11:07:16;;;;;;;2.60;2.10;;;;;;;6.58;100.00;153050.41;5038179;28;20463;-88
2023/11/17 11:09:42;;;;;;;3.57;2.30;;;;;;;6.59;100.00;153054.28;5036648;28;20460;-87
2023/11/17 11:12:20;;;;;;;2.07;1.57;;;;;;;6.58;100.00;153051.72;5038066;28;20852;-88
2023/11/17 11:15:47;;;;;;;2.23;1.77;;;;;;;6.60;100.00;153055.56;4985392;28;20492;-86
2023/11/17 11:18:16;;;;;;;1.93;1.70;;;;;;;6.60;100.00;153055.56;4963082;28;20449;-87
2023/11/17 11:20:47;;;;;;;2.80;1.77;;;;;;;6.62;100.00;153060.72;4976465;28;20496;-86
2023/11/17 11:24:45;;;;;;;2.40;1.70;;;;;;;6.67;100.00;153073.66;4956971;28;20565;-86
2023/11/17 11:27:14;;;;;;;1.97;1.30;;;;;;;6.66;100.00;153072.38;4980379;28;20465;-87
2023/11/17 11:29:43;;;;;;;1.80;1.20;;;;;;;6.69;100.00;153078.81;4977158;28;20765;-87
2023/11/17 11:32:13;;;;;;;1.97;1.30;;;;;;;6.69;100.00;153080.13;4961561;28;20996;-87
2023/11/17 11:34:41;;;;;;;1.67;1.20;;;;;;;6.69;100.00;153078.81;4963830;28;20455;-86